Helder met enkele lage wolken en cirrus
Helder met enkele lage wolken en cirrus
Mist/lage stratus bewolking met enkele cirrus
Mist/lage stratus bewolking
Mist/lage stratus bewolking
Helder met enkele lage wolken
Heldere, wolkenloze hemel
(°C)
20°
20°
20°
20°
21°
21°
22°
22°
24°
24°
26°
26°
27°
27°
(°C)
21°
21°
21°
23°
25°
26°
27°
O
NNO
NW
WNW
NNO
O
OZO
(km/h)
4-7
5-8
5-10
5-12
5-12
5-12
7-15
(mm)
0
0
0
0
0
0
0
(%)
0
0
0
0
0
0
0

Zonverhoging

/ -15.9°
sun-icon
UV 7
06:44
21:19
Afnemende gibbous maan (228°)
00:40
09:52

METAR voor Alcantarilla (LERI)

Tijd Voorwaarden Temperatuur/
Dauwpunt
Wind Zicht Weer Wolken Luchtdruk Wijzigen Ruw
VFR 27°C / 14°C 230º variable 190º to 260º 5kt 9700m - Clouds and Visibility OK 1014 No Significant change LERI 261800Z 23005KT 190V260 CAVOK 27/14 Q1014 NOSIG
VFR 28°C / 14°C 220º variable 160º to 260º 6kt 9700m - Clouds and Visibility OK 1014 No Significant change LERI 261730Z 22006KT 160V260 CAVOK 28/14 Q1014 NOSIG
VFR 29°C / 13°C 100º 9kt 9700m - Clouds and Visibility OK 1014 No Significant change LERI 261700Z 10009KT CAVOK 29/13 Q1014 NOSIG
VFR 31°C / 13°C 130º variable 070º to 190º 9kt 9700m - Clouds and Visibility OK 1014 No Significant change LERI 261630Z 13009KT 070V190 CAVOK 31/13 Q1014 NOSIG
VFR 31°C / 14°C 110º variable 060º to 150º 9kt 9700m - Clouds and Visibility OK 1014 No Significant change LERI 261600Z 11009KT 060V150 CAVOK 31/14 Q1014 NOSIG
VFR 31°C / 13°C 120º variable 090º to 150º 13kt 9700m - Clouds and Visibility OK 1014 No Significant change LERI 261530Z 12013KT 090V150 CAVOK 31/13 Q1014 NOSIG
VFR 31°C / 14°C 130º 14kt 9700m - Clouds and Visibility OK 1014 No Significant change LERI 261500Z 13014KT CAVOK 31/14 Q1014 NOSIG
VFR 32°C / 14°C 150º variable 120º to 190º 12kt 9700m - Clouds and Visibility OK 1014 No Significant change LERI 261430Z 15012KT 120V190 CAVOK 32/14 Q1014 NOSIG
VFR 32°C / 14°C 140º variable 110º to 170º 12kt 9700m - Clouds and Visibility OK 1015 No Significant change LERI 261400Z 14012KT 110V170 CAVOK 32/14 Q1015 NOSIG
VFR 33°C / 13°C 130º variable 100º to 170º 12kt 9700m - Clouds and Visibility OK 1015 No Significant change LERI 261330Z 13012KT 100V170 CAVOK 33/13 Q1015 NOSIG
VFR 32°C / 14°C 120º variable 090º to 160º 12kt 9700m - Clouds and Visibility OK 1015 No Significant change LERI 261300Z 12012KT 090V160 CAVOK 32/14 Q1015 NOSIG
VFR 31°C / 14°C 90º variable 050º to 130º 11kt 9700m - Clouds and Visibility OK 1015 No Significant change LERI 261230Z 09011KT 050V130 CAVOK 31/14 Q1015 NOSIG
VFR 31°C / 13°C 110º variable 070º to 140º 10kt 9700m - Clouds and Visibility OK 1016 No Significant change LERI 261200Z 11010KT 070V140 CAVOK 31/13 Q1016 NOSIG
VFR 31°C / 13°C 110º variable 060º to 150º 9kt 9700m - Clouds and Visibility OK 1016 No Significant change LERI 261130Z 11009KT 060V150 CAVOK 31/13 Q1016 NOSIG
VFR 28°C / 14°C 70º variable 330º to 140º 4kt 9700m - Clouds and Visibility OK 1017 No Significant change LERI 261100Z 07004KT 330V140 CAVOK 28/14 Q1017 NOSIG
VFR 28°C / 15°C 70º variable 360º to 130º 4kt 9700m - Clouds and Visibility OK 1017 No Significant change LERI 261030Z 07004KT 360V130 CAVOK 28/15 Q1017 NOSIG
VFR 26°C / 14°C 3kt 9700m - Clouds and Visibility OK 1017 No Significant change LERI 261000Z VRB03KT CAVOK 26/14 Q1017 NOSIG
VFR 25°C / 14°C 90º variable 010º to 160º 3kt 9700m - Clouds and Visibility OK 1017 No Significant change LERI 260930Z 09003KT 010V160 CAVOK 25/14 Q1017 NOSIG
VFR 23°C / 15°C 60º variable 350º to 120º 4kt 9700m - Clouds and Visibility OK 1018 No Significant change LERI 260900Z 06004KT 350V120 CAVOK 23/15 Q1018 NOSIG
VFR 22°C / 15°C 2kt 9700m - Clouds and Visibility OK 1018 No Significant change LERI 260830Z VRB02KT CAVOK 22/15 Q1018 NOSIG
VFR 22°C / 15°C 60º variable 350º to 110º 3kt 9700m - Clouds and Visibility OK 1018 No Significant change LERI 260800Z 06003KT 350V110 CAVOK 22/15 Q1018 NOSIG
VFR 20°C / 15°C variable 0kt 9700m - Clouds and Visibility OK 1018 No Significant change LERI 260700Z 00000KT CAVOK 20/15 Q1018 NOSIG
VFR 18°C / 14°C 2kt 9700m - Clouds and Visibility OK 1018 No Significant change LERI 260630Z VRB02KT CAVOK 18/14 Q1018 NOSIG
VFR 17°C / 13°C 1kt 9700m - Clouds and Visibility OK 1017 No Significant change LERI 260600Z VRB01KT CAVOK 17/13 Q1017 NOSIG

VFR

27°C / 14°C

[Meer]
Wind 230º variable 190º to 260º 5kt
Zicht 9700m
Weer -
Wolken Clouds and Visibility OK
Luchtdruk 1014
Wijzigen No Significant change
Ruw LERI 261800Z 23005KT 190V260 CAVOK 27/14 Q1014 NOSIG

VFR

28°C / 14°C

[Meer]
Wind 220º variable 160º to 260º 6kt
Zicht 9700m
Weer -
Wolken Clouds and Visibility OK
Luchtdruk 1014
Wijzigen No Significant change
Ruw LERI 261730Z 22006KT 160V260 CAVOK 28/14 Q1014 NOSIG

VFR

29°C / 13°C

[Meer]
Wind 100º 9kt
Zicht 9700m
Weer -
Wolken Clouds and Visibility OK
Luchtdruk 1014
Wijzigen No Significant change
Ruw LERI 261700Z 10009KT CAVOK 29/13 Q1014 NOSIG

VFR

31°C / 13°C

[Meer]
Wind 130º variable 070º to 190º 9kt
Zicht 9700m
Weer -
Wolken Clouds and Visibility OK
Luchtdruk 1014
Wijzigen No Significant change
Ruw LERI 261630Z 13009KT 070V190 CAVOK 31/13 Q1014 NOSIG

VFR

31°C / 14°C

[Meer]
Wind 110º variable 060º to 150º 9kt
Zicht 9700m
Weer -
Wolken Clouds and Visibility OK
Luchtdruk 1014
Wijzigen No Significant change
Ruw LERI 261600Z 11009KT 060V150 CAVOK 31/14 Q1014 NOSIG

VFR

31°C / 13°C

[Meer]
Wind 120º variable 090º to 150º 13kt
Zicht 9700m
Weer -
Wolken Clouds and Visibility OK
Luchtdruk 1014
Wijzigen No Significant change
Ruw LERI 261530Z 12013KT 090V150 CAVOK 31/13 Q1014 NOSIG

VFR

31°C / 14°C

[Meer]
Wind 130º 14kt
Zicht 9700m
Weer -
Wolken Clouds and Visibility OK
Luchtdruk 1014
Wijzigen No Significant change
Ruw LERI 261500Z 13014KT CAVOK 31/14 Q1014 NOSIG

VFR

32°C / 14°C

[Meer]
Wind 150º variable 120º to 190º 12kt
Zicht 9700m
Weer -
Wolken Clouds and Visibility OK
Luchtdruk 1014
Wijzigen No Significant change
Ruw LERI 261430Z 15012KT 120V190 CAVOK 32/14 Q1014 NOSIG

VFR

32°C / 14°C

[Meer]
Wind 140º variable 110º to 170º 12kt
Zicht 9700m
Weer -
Wolken Clouds and Visibility OK
Luchtdruk 1015
Wijzigen No Significant change
Ruw LERI 261400Z 14012KT 110V170 CAVOK 32/14 Q1015 NOSIG

VFR

33°C / 13°C

[Meer]
Wind 130º variable 100º to 170º 12kt
Zicht 9700m
Weer -
Wolken Clouds and Visibility OK
Luchtdruk 1015
Wijzigen No Significant change
Ruw LERI 261330Z 13012KT 100V170 CAVOK 33/13 Q1015 NOSIG

VFR

32°C / 14°C

[Meer]
Wind 120º variable 090º to 160º 12kt
Zicht 9700m
Weer -
Wolken Clouds and Visibility OK
Luchtdruk 1015
Wijzigen No Significant change
Ruw LERI 261300Z 12012KT 090V160 CAVOK 32/14 Q1015 NOSIG

VFR

31°C / 14°C

[Meer]
Wind 90º variable 050º to 130º 11kt
Zicht 9700m
Weer -
Wolken Clouds and Visibility OK
Luchtdruk 1015
Wijzigen No Significant change
Ruw LERI 261230Z 09011KT 050V130 CAVOK 31/14 Q1015 NOSIG

VFR

31°C / 13°C

[Meer]
Wind 110º variable 070º to 140º 10kt
Zicht 9700m
Weer -
Wolken Clouds and Visibility OK
Luchtdruk 1016
Wijzigen No Significant change
Ruw LERI 261200Z 11010KT 070V140 CAVOK 31/13 Q1016 NOSIG

VFR

31°C / 13°C

[Meer]
Wind 110º variable 060º to 150º 9kt
Zicht 9700m
Weer -
Wolken Clouds and Visibility OK
Luchtdruk 1016
Wijzigen No Significant change
Ruw LERI 261130Z 11009KT 060V150 CAVOK 31/13 Q1016 NOSIG

VFR

28°C / 14°C

[Meer]
Wind 70º variable 330º to 140º 4kt
Zicht 9700m
Weer -
Wolken Clouds and Visibility OK
Luchtdruk 1017
Wijzigen No Significant change
Ruw LERI 261100Z 07004KT 330V140 CAVOK 28/14 Q1017 NOSIG

VFR

28°C / 15°C

[Meer]
Wind 70º variable 360º to 130º 4kt
Zicht 9700m
Weer -
Wolken Clouds and Visibility OK
Luchtdruk 1017
Wijzigen No Significant change
Ruw LERI 261030Z 07004KT 360V130 CAVOK 28/15 Q1017 NOSIG

VFR

26°C / 14°C

[Meer]
Wind 3kt
Zicht 9700m
Weer -
Wolken Clouds and Visibility OK
Luchtdruk 1017
Wijzigen No Significant change
Ruw LERI 261000Z VRB03KT CAVOK 26/14 Q1017 NOSIG

VFR

25°C / 14°C

[Meer]
Wind 90º variable 010º to 160º 3kt
Zicht 9700m
Weer -
Wolken Clouds and Visibility OK
Luchtdruk 1017
Wijzigen No Significant change
Ruw LERI 260930Z 09003KT 010V160 CAVOK 25/14 Q1017 NOSIG

VFR

23°C / 15°C

[Meer]
Wind 60º variable 350º to 120º 4kt
Zicht 9700m
Weer -
Wolken Clouds and Visibility OK
Luchtdruk 1018
Wijzigen No Significant change
Ruw LERI 260900Z 06004KT 350V120 CAVOK 23/15 Q1018 NOSIG

VFR

22°C / 15°C

[Meer]
Wind 2kt
Zicht 9700m
Weer -
Wolken Clouds and Visibility OK
Luchtdruk 1018
Wijzigen No Significant change
Ruw LERI 260830Z VRB02KT CAVOK 22/15 Q1018 NOSIG

VFR

22°C / 15°C

[Meer]
Wind 60º variable 350º to 110º 3kt
Zicht 9700m
Weer -
Wolken Clouds and Visibility OK
Luchtdruk 1018
Wijzigen No Significant change
Ruw LERI 260800Z 06003KT 350V110 CAVOK 22/15 Q1018 NOSIG

VFR

20°C / 15°C

[Meer]
Wind variable 0kt
Zicht 9700m
Weer -
Wolken Clouds and Visibility OK
Luchtdruk 1018
Wijzigen No Significant change
Ruw LERI 260700Z 00000KT CAVOK 20/15 Q1018 NOSIG

VFR

18°C / 14°C

[Meer]
Wind 2kt
Zicht 9700m
Weer -
Wolken Clouds and Visibility OK
Luchtdruk 1018
Wijzigen No Significant change
Ruw LERI 260630Z VRB02KT CAVOK 18/14 Q1018 NOSIG

VFR

17°C / 13°C

[Meer]
Wind 1kt
Zicht 9700m
Weer -
Wolken Clouds and Visibility OK
Luchtdruk 1017
Wijzigen No Significant change
Ruw LERI 260600Z VRB01KT CAVOK 17/13 Q1017 NOSIG

TAF voor Alcantarilla (LERI)

From till


Maximum Temperature 27ºC on . Minimum Temperature 17ºC on .
From till Wind 180º 5kt. Visibility 9700m. Nil Significant Cloud.
Becoming from till

Ruw: TAF LERI 261700Z 2618/2718 18005KT CAVOK TX27/2714Z TN17/2706Z BECMG 2707/2709 12010KT

Radar en neerslag nowcast voor Alcantarilla

Motregen
Licht
Matig
Zwaar
Zeer zwaar
Hagel

De locatiemarkering is op Alcantarilla geplaatst . Deze animatie toont de neerslagradar voor het geselecteerde tijdvak, alsmede een 2h voorspelling. Oranje kruisjes geven de bliksem aan. Gegevens verstrekt door nowcast.de (beschikbaar in de VS, Europa en Australië). Motregen of lichte sneeuwval kan onzichtbaar zijn voor de radar. De neerslagintensiteit heeft een kleurcode, gaande van turkoois tot rood.

Huidige satelliet- en regenbeelden voor Alcantarilla, Spanje

De locatiemarkering is op Alcantarilla geplaatst. [Meer]

Het realtime satellietbeeld combineert zichtbaar licht overdag met infraroodstraling 's nachts. 's Nachts is het beeld niet donker, omdat infraroodstraling temperatuurverschillen kan waarnemen. Helaas zijn lage wolken en mist moeilijk te onderscheiden van grondtemperaturen en kunnen dus 's nachts bijna onzichtbaar zijn. Meteosat-satellietbeelden voor Europa worden elke 5 minuten in real time bijgewerkt. De beelden van GOES-16/GOES-17 (Noord- en Zuid-Amerika) en Himawari (Azië) worden om de 10 minuten bijgewerkt.

De neerslag wordt geschat met behulp van radar en satellieten. Neerslagschattingen van satellieten zijn 's nachts minder nauwkeurig dan overdag.

© 2024 meteoblue, NOAA Satellites GOES-16 and EUMETSAT. Bliksemgegevens verstrekt door nowcast.

Terug naar boven
×
Hallo daar,
Het lijkt erop dat u een advertentieblokker gebruikt.

Reclame is van essentieel belang om onze gratis website te onderhouden met unieke details en nauwkeurigheid.

Gelieve www.meteoblue.com te whitelisten op uw ad blocker of overweeg één van onze producten:

Heeft u al een abonnement?
Dan kunt u inloggen.